Time;durP1;ratioP1;P1;durP2;ratioP2;P2;SDS_P1;SDS_P2;PMS_P1;PMS_P2;Temp;Humidity;BMP_temperature;BMP_pressure;BME280_temperature;BME280_humidity;BME280_pressure;Samples;Min_cycle;Max_cycle;Signal;HPM_P1;HPM_P2
2022/08/24 00:00:20;;;;;;;6.05;2.47;;;;;;;;;;5009428;28;20096;-60
2022/08/24 00:02:48;;;;;;;5.28;2.80;;;;;;;;;;5025089;28;20080;-57
2022/08/24 00:05:16;;;;;;;5.65;2.75;;;;;;;;;;5029889;28;20061;-57
2022/08/24 00:07:42;;;;;;;5.88;3.15;;;;;;;;;;5028726;28;20053;-62
2022/08/24 00:10:10;;;;;;;5.78;2.83;;;;;;;;;;5029394;28;20053;-59
2022/08/24 00:12:36;;;;;;;7.03;3.07;;;;;;;;;;5029319;28;20123;-58
2022/08/24 00:15:06;;;;;;;6.20;3.30;;;;;;;;;;5029002;28;20056;-58
2022/08/24 00:17:33;;;;;;;5.40;2.88;;;;;;;;;;5028849;28;20060;-58
2022/08/24 00:20:01;;;;;;;6.63;3.07;;;;;;;;;;5028406;28;20136;-61
2022/08/24 00:22:27;;;;;;;8.77;3.10;;;;;;;;;;5029877;28;20053;-61
2022/08/24 00:24:55;;;;;;;6.20;3.00;;;;;;;;;;5029626;28;20064;-63
2022/08/24 00:27:22;;;;;;;5.57;2.72;;;;;;;;;;5029695;28;20053;-62
2022/08/24 00:29:50;;;;;;;8.85;3.40;;;;;;;;;;5028990;28;20046;-62
2022/08/24 00:32:18;;;;;;;7.72;3.22;;;;;;;;;;5028359;28;20053;-59
2022/08/24 00:34:45;;;;;;;7.60;2.90;;;;;;;;;;5029918;28;20053;-61
2022/08/24 00:37:11;;;;;;;6.13;3.40;;;;;;;;;;5029192;28;20065;-62
2022/08/24 00:39:38;;;;;;;5.72;2.90;;;;;;;;;;5030208;28;20073;-62
2022/08/24 00:42:05;;;;;;;7.07;3.17;;;;;;;;;;5029013;28;20069;-61
2022/08/24 00:44:34;;;;;;;6.63;3.50;;;;;;;;;;5030363;28;20060;-59
2022/08/24 00:47:15;;;;;;;7.60;3.45;;;;;;;;;;5029493;28;20080;-62
2022/08/24 00:49:45;;;;;;;8.60;3.40;;;;;;;;;;5028997;28;20103;-62
2022/08/24 00:52:14;;;;;;;6.82;3.15;;;;;;;;;;5028833;28;20079;-62
2022/08/24 00:54:45;;;;;;;8.13;3.42;;;;;;;;;;5028895;28;20050;-61
2022/08/24 00:57:12;;;;;;;7.20;3.47;;;;;;;;;;5030197;28;20042;-62
2022/08/24 00:59:46;;;;;;;7.88;3.40;;;;;;;;;;5031142;28;20103;-58
2022/08/24 01:02:14;;;;;;;7.70;3.90;;;;;;;;;;5033148;28;20052;-57
2022/08/24 01:04:58;;;;;;;6.57;3.40;;;;;;;;;;5041591;28;20128;-53
2022/08/24 01:07:29;;;;;;;7.05;3.45;;;;;;;;;;5032940;28;20076;-56
2022/08/24 01:10:00;;;;;;;9.68;3.90;;;;;;;;;;5031250;28;20054;-55
2022/08/24 01:12:27;;;;;;;6.82;3.50;;;;;;;;;;5031123;28;20051;-57
2022/08/24 01:14:55;;;;;;;7.50;3.73;;;;;;;;;;5030944;28;20107;-58
2022/08/24 01:20:25;;;;;;;7.68;3.33;;;;;;;;;;4973536;28;20058;-58
2022/08/24 01:23:02;;;;;;;7.53;3.53;;;;;;;;;;5017315;28;20059;-56
2022/08/24 01:25:31;;;;;;;7.65;3.47;;;;;;;;;;5029774;28;20061;-57
2022/08/24 01:28:03;;;;;;;8.73;3.78;;;;;;;;;;5028862;28;20129;-58
2022/08/24 01:30:34;;;;;;;6.72;4.00;;;;;;;;;;5029279;28;20057;-57
2022/08/24 01:33:02;;;;;;;6.70;3.80;;;;;;;;;;5028544;28;20064;-58
2022/08/24 01:35:29;;;;;;;7.05;3.72;;;;;;;;;;5028612;28;20057;-58
2022/08/24 01:37:58;;;;;;;6.43;3.90;;;;;;;;;;5028720;28;20054;-58
2022/08/24 01:40:31;;;;;;;9.25;3.65;;;;;;;;;;5028296;28;20058;-57
2022/08/24 01:42:59;;;;;;;9.55;4.15;;;;;;;;;;5028465;28;20081;-56
2022/08/24 01:45:26;;;;;;;7.00;3.65;;;;;;;;;;5028754;28;20053;-58
2022/08/24 01:47:53;;;;;;;7.82;3.75;;;;;;;;;;5027663;28;20049;-58
2022/08/24 01:50:20;;;;;;;7.15;3.28;;;;;;;;;;5028231;28;20087;-61
2022/08/24 01:52:47;;;;;;;7.32;3.60;;;;;;;;;;5027810;28;20053;-61
2022/08/24 01:55:16;;;;;;;6.15;3.38;;;;;;;;;;5028537;28;20061;-62
2022/08/24 01:57:43;;;;;;;6.25;3.42;;;;;;;;;;5028874;28;20104;-62
2022/08/24 02:00:16;;;;;;;6.20;3.33;;;;;;;;;;5029201;28;20045;-62
2022/08/24 02:02:43;;;;;;;6.88;3.45;;;;;;;;;;5013603;23;20054;-62
2022/08/24 02:05:11;;;;;;;10.88;3.40;;;;;;;;;;4989103;28;20078;-62
2022/08/24 02:07:38;;;;;;;8.00;3.88;;;;;;;;;;4998574;28;20112;-63
2022/08/24 02:10:06;;;;;;;8.52;3.70;;;;;;;;;;4997122;28;20058;-61
2022/08/24 02:12:32;;;;;;;7.25;3.15;;;;;;;;;;5005904;28;20050;-59
2022/08/24 02:15:01;;;;;;;6.97;3.35;;;;;;;;;;4995159;28;20108;-63
2022/08/24 02:17:29;;;;;;;6.78;3.05;;;;;;;;;;5004897;28;20053;-62
2022/08/24 02:19:56;;;;;;;6.65;3.22;;;;;;;;;;4999059;28;20065;-64
2022/08/24 02:22:22;;;;;;;5.78;3.17;;;;;;;;;;5000552;28;20057;-62
2022/08/24 02:24:49;;;;;;;7.63;3.40;;;;;;;;;;5004433;28;20062;-63
2022/08/24 02:27:15;;;;;;;7.13;3.20;;;;;;;;;;4995868;28;20057;-60
2022/08/24 02:29:42;;;;;;;8.65;3.42;;;;;;;;;;5005954;28;20062;-62
2022/08/24 02:32:10;;;;;;;5.80;3.10;;;;;;;;;;4998816;28;20064;-63
2022/08/24 02:34:38;;;;;;;8.50;3.45;;;;;;;;;;5006749;28;20057;-58
2022/08/24 02:37:06;;;;;;;7.45;2.97;;;;;;;;;;5006058;28;20046;-60
2022/08/24 02:39:33;;;;;;;;;;;;;;;;;;5001161;28;20056;-63
2022/08/24 02:42:00;;;;;;;4.65;2.63;;;;;;;;;;5023340;28;19965;-63
2022/08/24 02:44:26;;;;;;;7.45;3.03;;;;;;;;;;5000614;28;20041;-63
2022/08/24 02:46:53;;;;;;;6.50;2.97;;;;;;;;;;5005755;28;20042;-62
2022/08/24 02:49:21;;;;;;;7.43;3.35;;;;;;;;;;5000191;28;20049;-63
2022/08/24 02:51:49;;;;;;;8.15;3.60;;;;;;;;;;5006210;28;20038;-62
2022/08/24 02:54:16;;;;;;;5.28;2.85;;;;;;;;;;5002628;28;20198;-60
2022/08/24 02:56:43;;;;;;;4.80;2.53;;;;;;;;;;5008060;28;20124;-60
2022/08/24 02:59:11;;;;;;;6.28;3.20;;;;;;;;;;5010525;28;20042;-62
2022/08/24 03:01:38;;;;;;;6.32;2.95;;;;;;;;;;5004435;28;20124;-58
2022/08/24 03:04:07;;;;;;;6.25;3.00;;;;;;;;;;5009826;28;20049;-56
2022/08/24 03:06:34;;;;;;;4.97;2.67;;;;;;;;;;5003571;28;20058;-60
2022/08/24 03:09:02;;;;;;;6.28;2.78;;;;;;;;;;5009708;28;20157;-59
2022/08/24 03:11:34;;;;;;;;;;;;;;;;;;5003845;28;20068;-58
2022/08/24 03:14:01;;;;;;;6.38;2.70;;;;;;;;;;5011508;28;19968;-58
2022/08/24 03:16:28;;;;;;;6.00;2.90;;;;;;;;;;5008349;28;20050;-60
2022/08/24 03:18:55;;;;;;;6.10;2.78;;;;;;;;;;5005365;28;20053;-56
2022/08/24 03:21:25;;;;;;;5.30;2.75;;;;;;;;;;5008973;28;20049;-61
2022/08/24 03:23:51;;;;;;;5.70;2.95;;;;;;;;;;5005213;28;20077;-61
2022/08/24 03:26:20;;;;;;;5.30;2.88;;;;;;;;;;5008914;28;20054;-60
2022/08/24 03:28:46;;;;;;;6.43;3.00;;;;;;;;;;5003189;28;20066;-62
2022/08/24 03:31:13;;;;;;;7.15;2.88;;;;;;;;;;5010235;28;20064;-62
2022/08/24 03:33:40;;;;;;;5.05;2.63;;;;;;;;;;5004786;28;20064;-64
2022/08/24 03:36:07;;;;;;;5.32;2.65;;;;;;;;;;5010881;28;20064;-62
2022/08/24 03:38:34;;;;;;;5.70;2.63;;;;;;;;;;5002847;28;20076;-62
2022/08/24 03:41:01;;;;;;;5.22;2.67;;;;;;;;;;5008952;28;20049;-62
2022/08/24 03:43:47;;;;;;;6.40;2.95;;;;;;;;;;5005084;28;20173;-62
2022/08/24 03:46:15;;;;;;;4.85;2.70;;;;;;;;;;5010339;28;20069;-62
2022/08/24 03:48:43;;;;;;;5.20;2.90;;;;;;;;;;5003614;28;20104;-61
2022/08/24 03:51:11;;;;;;;5.43;2.70;;;;;;;;;;5010820;28;20050;-62
2022/08/24 03:53:38;;;;;;;5.18;2.67;;;;;;;;;;5003301;28;20121;-63
2022/08/24 03:56:04;;;;;;;4.82;2.88;;;;;;;;;;5008752;28;20054;-63
2022/08/24 03:58:34;;;;;;;6.05;2.67;;;;;;;;;;5002585;28;20050;-62
2022/08/24 04:01:01;;;;;;;4.75;2.72;;;;;;;;;;5007570;28;20107;-62
2022/08/24 04:03:28;;;;;;;7.43;2.80;;;;;;;;;;5005085;28;20057;-63
2022/08/24 04:05:54;;;;;;;4.20;2.35;;;;;;;;;;4989583;28;20082;-61
2022/08/24 04:08:21;;;;;;;4.72;2.53;;;;;;;;;;5024838;28;20096;-62
2022/08/24 04:10:47;;;;;;;4.40;2.65;;;;;;;;;;5000406;28;20072;-60
2022/08/24 04:13:14;;;;;;;4.90;2.50;;;;;;;;;;4999389;28;20116;-62
2022/08/24 04:15:43;;;;;;;4.78;2.10;;;;;;;;;;5001021;28;20077;-61
2022/08/24 04:18:09;;;;;;;3.97;2.33;;;;;;;;;;5007585;28;20074;-63
2022/08/24 04:20:42;;;;;;;6.80;3.45;;;;;;;;;;5002379;28;20054;-60
2022/08/24 04:23:09;;;;;;;6.20;2.55;;;;;;;;;;5008670;28;20049;-62
2022/08/24 04:25:40;;;;;;;6.00;2.70;;;;;;;;;;5008452;28;20049;-63
2022/08/24 04:28:08;;;;;;;5.55;2.83;;;;;;;;;;5004394;28;20312;-61
2022/08/24 04:30:35;;;;;;;4.85;2.60;;;;;;;;;;5007577;28;20037;-63
2022/08/24 04:33:03;;;;;;;5.38;2.72;;;;;;;;;;5001943;28;20145;-62
2022/08/24 04:35:30;;;;;;;4.70;2.47;;;;;;;;;;5008812;28;20054;-63
2022/08/24 04:37:57;;;;;;;5.03;2.50;;;;;;;;;;5000348;28;20065;-61
2022/08/24 04:40:23;;;;;;;4.53;2.50;;;;;;;;;;5008019;28;20069;-63
2022/08/24 04:42:50;;;;;;;4.15;2.40;;;;;;;;;;5003341;28;20074;-61
2022/08/24 04:45:16;;;;;;;4.82;2.45;;;;;;;;;;5006663;28;20050;-63
2022/08/24 04:47:43;;;;;;;5.57;2.47;;;;;;;;;;5007859;28;20053;-63
2022/08/24 04:50:11;;;;;;;5.05;2.65;;;;;;;;;;5001537;28;20262;-60
2022/08/24 04:52:39;;;;;;;7.40;2.83;;;;;;;;;;5007842;28;20053;-60
2022/08/24 04:55:06;;;;;;;6.22;2.30;;;;;;;;;;5002267;28;20075;-58
2022/08/24 04:57:33;;;;;;;5.35;2.60;;;;;;;;;;5007605;28;20034;-62
2022/08/24 05:00:00;;;;;;;5.28;2.85;;;;;;;;;;4994093;28;20046;-62
2022/08/24 05:02:27;;;;;;;5.95;2.70;;;;;;;;;;5005387;28;20298;-62
2022/08/24 05:04:55;;;;;;;7.20;2.72;;;;;;;;;;5005581;28;20054;-60
2022/08/24 05:07:24;;;;;;;6.47;2.78;;;;;;;;;;5000544;28;20058;-61
2022/08/24 05:09:54;;;;;;;4.72;2.67;;;;;;;;;;5019597;28;20050;-58
2022/08/24 05:12:21;;;;;;;4.93;2.47;;;;;;;;;;4998384;28;20115;-62
2022/08/24 05:14:48;;;;;;;4.80;2.70;;;;;;;;;;5005795;28;20108;-59
2022/08/24 05:17:15;;;;;;;4.57;2.75;;;;;;;;;;4994187;28;20050;-63
2022/08/24 05:19:42;;;;;;;5.82;2.83;;;;;;;;;;5004995;28;20054;-58
2022/08/24 05:22:09;;;;;;;6.30;2.60;;;;;;;;;;5000146;28;20064;-62
2022/08/24 05:24:37;;;;;;;5.55;2.80;;;;;;;;;;5005218;28;20049;-62
2022/08/24 05:27:03;;;;;;;;;;;;;;;;;;5000253;28;20065;-61
2022/08/24 05:29:32;;;;;;;4.45;2.28;;;;;;;;;;5005407;28;19983;-60
2022/08/24 05:32:00;;;;;;;4.57;2.33;;;;;;;;;;5004913;28;20061;-59
2022/08/24 05:34:27;;;;;;;4.25;2.42;;;;;;;;;;4997106;28;20098;-62
2022/08/24 05:36:54;;;;;;;3.70;2.40;;;;;;;;;;5005080;28;20058;-61
2022/08/24 05:39:22;;;;;;;5.55;2.65;;;;;;;;;;4998371;28;20119;-61
2022/08/24 05:41:50;;;;;;;4.20;2.50;;;;;;;;;;5006385;28;20108;-57
2022/08/24 05:44:17;;;;;;;5.53;2.58;;;;;;;;;;5001224;28;20119;-64
2022/08/24 05:46:44;;;;;;;4.55;2.40;;;;;;;;;;5009465;28;20049;-62
2022/08/24 05:49:11;;;;;;;5.85;2.45;;;;;;;;;;5002236;28;20053;-63
2022/08/24 05:51:38;;;;;;;4.40;2.40;;;;;;;;;;5009098;28;20053;-63
2022/08/24 05:54:05;;;;;;;4.68;2.38;;;;;;;;;;5003595;28;20161;-62
2022/08/24 05:56:31;;;;;;;4.47;2.55;;;;;;;;;;5008910;28;20060;-61
2022/08/24 05:58:59;;;;;;;4.97;2.42;;;;;;;;;;5005063;28;20132;-63
2022/08/24 06:01:27;;;;;;;4.43;2.38;;;;;;;;;;5010296;28;20050;-59
2022/08/24 06:03:55;;;;;;;7.68;2.85;;;;;;;;;;5003909;28;20054;-62
2022/08/24 06:06:22;;;;;;;5.05;2.50;;;;;;;;;;5009245;28;20038;-63
2022/08/24 06:08:52;;;;;;;5.18;2.35;;;;;;;;;;5001333;28;20046;-63
2022/08/24 06:11:27;;;;;;;6.67;2.30;;;;;;;;;;5008607;28;20108;-64
2022/08/24 06:13:55;;;;;;;3.80;2.33;;;;;;;;;;5004004;28;20308;-61
2022/08/24 06:16:23;;;;;;;4.88;2.80;;;;;;;;;;5007554;28;20057;-60
2022/08/24 06:18:51;;;;;;;5.00;2.28;;;;;;;;;;5008969;28;20057;-63
2022/08/24 06:21:31;;;;;;;5.38;2.40;;;;;;;;;;4987682;28;20050;-63
2022/08/24 06:23:58;;;;;;;5.30;2.40;;;;;;;;;;5009347;28;20058;-62
2022/08/24 06:29:09;;;;;;;5.68;2.47;;;;;;;;;;5008069;28;20053;-61
2022/08/24 06:31:38;;;;;;;8.52;4.80;;;;;;;;;;5008064;28;20168;-62
2022/08/24 06:34:05;;;;;;;5.40;2.92;;;;;;;;;;5013640;28;20062;-63
2022/08/24 06:36:31;;;;;;;5.40;2.42;;;;;;;;;;5007822;28;20042;-63
2022/08/24 06:39:00;;;;;;;6.65;3.45;;;;;;;;;;5013164;28;20042;-62
2022/08/24 06:41:34;;;;;;;21.27;10.68;;;;;;;;;;5008049;28;20042;-63
2022/08/24 06:44:01;;;;;;;14.80;7.90;;;;;;;;;;5013920;28;20053;-62
2022/08/24 06:46:28;;;;;;;14.10;7.47;;;;;;;;;;5006289;28;20081;-62
2022/08/24 06:48:56;;;;;;;15.23;7.85;;;;;;;;;;5012958;28;20054;-63
2022/08/24 06:51:25;;;;;;;18.75;7.57;;;;;;;;;;5006877;28;20134;-63
2022/08/24 06:53:54;;;;;;;14.95;8.05;;;;;;;;;;5012364;28;20054;-62
2022/08/24 06:56:21;;;;;;;17.90;8.95;;;;;;;;;;5007480;28;20046;-63
2022/08/24 06:58:48;;;;;;;20.73;8.70;;;;;;;;;;5013390;28;20129;-62
2022/08/24 07:01:16;;;;;;;23.52;9.85;;;;;;;;;;5007690;28;20053;-63
2022/08/24 07:03:44;;;;;;;12.70;7.40;;;;;;;;;;5008901;28;20052;-63
2022/08/24 07:06:12;;;;;;;14.82;7.53;;;;;;;;;;5004577;28;20053;-64
2022/08/24 07:08:41;;;;;;;13.45;6.88;;;;;;;;;;5012163;28;20057;-61
2022/08/24 07:11:11;;;;;;;19.30;8.68;;;;;;;;;;5008688;28;20041;-63
2022/08/24 07:13:37;;;;;;;12.93;7.40;;;;;;;;;;5008622;28;20050;-62
2022/08/24 07:16:04;;;;;;;14.45;7.78;;;;;;;;;;5011728;28;20054;-62
2022/08/24 07:18:32;;;;;;;14.73;7.65;;;;;;;;;;4993854;28;20082;-62
2022/08/24 07:21:01;;;;;;;14.82;7.68;;;;;;;;;;4992417;28;20064;-65
2022/08/24 07:23:29;;;;;;;15.93;7.00;;;;;;;;;;5004387;28;20086;-62
2022/08/24 07:25:55;;;;;;;15.93;8.20;;;;;;;;;;5008471;28;20077;-63
2022/08/24 07:28:27;;;;;;;11.07;5.30;;;;;;;;;;4991434;28;20065;-62
2022/08/24 07:30:53;;;;;;;9.80;4.43;;;;;;;;;;4997192;28;20132;-57
2022/08/24 07:33:20;;;;;;;10.70;6.05;;;;;;;;;;5010774;28;20076;-59
2022/08/24 07:35:46;;;;;;;7.45;4.22;;;;;;;;;;5005144;28;20058;-61
2022/08/24 07:38:13;;;;;;;18.10;8.55;;;;;;;;;;5010199;28;20046;-61
2022/08/24 07:40:46;;;;;;;15.13;8.75;;;;;;;;;;5006279;28;20114;-60
2022/08/24 07:43:13;;;;;;;11.07;6.15;;;;;;;;;;5011359;28;20054;-58
2022/08/24 07:45:40;;;;;;;19.75;8.82;;;;;;;;;;5005764;28;20058;-62
2022/08/24 07:48:07;;;;;;;17.35;8.70;;;;;;;;;;5010665;28;20057;-61
2022/08/24 07:50:34;;;;;;;17.38;9.23;;;;;;;;;;5006929;28;20050;-58
2022/08/24 07:53:01;;;;;;;20.10;9.35;;;;;;;;;;5008711;28;20054;-60
2022/08/24 07:55:27;;;;;;;20.70;10.43;;;;;;;;;;5010173;28;20057;-61
2022/08/24 07:57:55;;;;;;;13.23;7.20;;;;;;;;;;5004710;28;20104;-58
2022/08/24 08:00:22;;;;;;;17.02;8.23;;;;;;;;;;5010403;28;20050;-62
2022/08/24 08:02:49;;;;;;;15.05;7.22;;;;;;;;;;5004695;28;20049;-63
2022/08/24 08:05:17;;;;;;;17.80;8.50;;;;;;;;;;5009568;28;20046;-62
2022/08/24 08:07:43;;;;;;;19.67;8.48;;;;;;;;;;5003222;28;20068;-63
2022/08/24 08:10:11;;;;;;;14.02;8.65;;;;;;;;;;5008603;28;20054;-60
2022/08/24 08:12:38;;;;;;;16.58;8.80;;;;;;;;;;5009810;28;20065;-62
2022/08/24 08:15:08;;;;;;;19.30;9.10;;;;;;;;;;5004121;28;20068;-63
2022/08/24 08:17:35;;;;;;;17.08;9.55;;;;;;;;;;5007831;28;20054;-61
2022/08/24 08:20:02;;;;;;;18.42;7.50;;;;;;;;;;5003717;28;20054;-58
2022/08/24 08:25:13;;;;;;;13.48;6.13;;;;;;;;;;5003094;28;20061;-60
2022/08/24 08:27:39;;;;;;;17.70;8.13;;;;;;;;;;5011002;28;20050;-58
2022/08/24 08:30:08;;;;;;;19.65;8.75;;;;;;;;;;5005569;28;20069;-60
2022/08/24 08:32:38;;;;;;;12.40;6.28;;;;;;;;;;5011123;28;20065;-60
2022/08/24 08:35:05;;;;;;;11.60;5.93;;;;;;;;;;5005028;28;20038;-63
2022/08/24 08:37:32;;;;;;;11.50;5.65;;;;;;;;;;5008784;28;21584;-62
2022/08/24 08:40:01;;;;;;;12.40;6.30;;;;;;;;;;5003694;28;20058;-60
2022/08/24 08:42:37;;;;;;;10.18;4.57;;;;;;;;;;5008978;28;20060;-56
2022/08/24 08:45:15;;;;;;;15.13;7.13;;;;;;;;;;5004575;28;20057;-60
2022/08/24 08:48:02;;;;;;;11.52;5.68;;;;;;;;;;5009458;28;20073;-63
2022/08/24 08:50:31;;;;;;;10.15;5.00;;;;;;;;;;4978373;28;20073;-63
2022/08/24 08:53:13;;;;;;;10.35;5.38;;;;;;;;;;5009492;28;20056;-63
2022/08/24 08:55:42;;;;;;;9.07;4.22;;;;;;;;;;5003917;28;20046;-62
2022/08/24 08:58:23;;;;;;;9.65;4.43;;;;;;;;;;5009263;28;20058;-63
2022/08/24 09:01:01;;;;;;;10.65;5.10;;;;;;;;;;5004699;28;20116;-66
2022/08/24 09:03:34;;;;;;;15.57;5.80;;;;;;;;;;5006420;28;20054;-60
2022/08/24 09:06:18;;;;;;;9.23;4.32;;;;;;;;;;5000718;28;20060;-63
2022/08/24 09:09:02;;;;;;;9.90;4.07;;;;;;;;;;5010118;28;20053;-64
2022/08/24 09:11:34;;;;;;;10.25;5.13;;;;;;;;;;5004563;28;20061;-63
2022/08/24 09:14:10;;;;;;;14.00;5.60;;;;;;;;;;5008964;28;20053;-63
2022/08/24 09:16:50;;;;;;;6.68;3.22;;;;;;;;;;5005475;28;20100;-64
2022/08/24 09:19:28;;;;;;;7.93;3.55;;;;;;;;;;5024008;28;20061;-62
2022/08/24 09:22:00;;;;;;;8.25;3.97;;;;;;;;;;5008233;28;20053;-62
2022/08/24 09:24:35;;;;;;;11.15;3.78;;;;;;;;;;5020684;28;20049;-61
2022/08/24 09:27:08;;;;;;;10.10;3.47;;;;;;;;;;5009106;28;20058;-63
2022/08/24 09:29:43;;;;;;;6.63;2.80;;;;;;;;;;5003771;28;20045;-64
2022/08/24 09:32:22;;;;;;;6.65;2.80;;;;;;;;;;5009417;28;20046;-63
2022/08/24 09:34:55;;;;;;;6.82;3.00;;;;;;;;;;5004199;28;20080;-61
2022/08/24 09:37:31;;;;;;;8.13;2.60;;;;;;;;;;5009949;28;20057;-64
2022/08/24 09:40:02;;;;;;;7.07;2.20;;;;;;;;;;5004991;28;20050;-63
2022/08/24 09:42:44;;;;;;;7.07;2.50;;;;;;;;;;5007694;28;20050;-63
2022/08/24 09:45:25;;;;;;;6.05;2.45;;;;;;;;;;5005087;28;20045;-54
2022/08/24 09:48:12;;;;;;;5.63;2.45;;;;;;;;;;5008510;28;20149;-62
2022/08/24 09:54:02;;;;;;;6.90;3.00;;;;;;;;;;5009568;28;20060;-62
2022/08/24 09:56:40;;;;;;;4.22;2.33;;;;;;;;;;5004800;28;20060;-60
2022/08/24 09:59:15;;;;;;;7.13;2.00;;;;;;;;;;5010081;28;20245;-56
2022/08/24 10:01:45;;;;;;;8.50;2.63;;;;;;;;;;5005197;28;20117;-62
2022/08/24 10:04:19;;;;;;;9.30;2.15;;;;;;;;;;5008859;28;20053;-61
2022/08/24 10:06:52;;;;;;;6.60;2.05;;;;;;;;;;5011769;28;20053;-63
2022/08/24 10:09:43;;;;;;;2.92;1.30;;;;;;;;;;5010357;28;20088;-60
2022/08/24 10:12:14;;;;;;;2.80;1.63;;;;;;;;;;5013398;28;20050;-57
2022/08/24 10:14:45;;;;;;;5.95;2.20;;;;;;;;;;5008815;28;20073;-62
2022/08/24 10:17:17;;;;;;;5.43;2.40;;;;;;;;;;5003908;28;20060;-64
2022/08/24 10:20:05;;;;;;;3.00;1.60;;;;;;;;;;5008891;28;20064;-63
2022/08/24 10:22:40;;;;;;;4.28;2.00;;;;;;;;;;5009751;28;20141;-62
2022/08/24 10:25:16;;;;;;;5.07;1.63;;;;;;;;;;5008264;28;20065;-61
2022/08/24 10:27:46;;;;;;;3.60;1.88;;;;;;;;;;5013221;28;20050;-56
2022/08/24 10:30:38;;;;;;;6.65;1.50;;;;;;;;;;5007227;28;20064;-58
2022/08/24 10:33:15;;;;;;;3.20;1.50;;;;;;;;;;5012031;28;20049;-59
2022/08/24 10:35:52;;;;;;;4.33;1.83;;;;;;;;;;5005869;28;20065;-59
2022/08/24 10:41:34;;;;;;;3.63;1.98;;;;;;;;;;5005639;28;20069;-60
2022/08/24 10:44:17;;;;;;;5.45;1.67;;;;;;;;;;5011287;28;20129;-61
2022/08/24 10:46:48;;;;;;;3.80;1.80;;;;;;;;;;5005380;28;20050;-60
2022/08/24 10:49:33;;;;;;;5.05;1.40;;;;;;;;;;5012305;28;20061;-63
2022/08/24 10:52:13;;;;;;;4.72;1.70;;;;;;;;;;5006629;28;20088;-58
2022/08/24 10:54:41;;;;;;;3.67;1.45;;;;;;;;;;5012100;28;20054;-57
2022/08/24 10:57:08;;;;;;;;;;;;;;;;;;5008491;28;20046;-62
2022/08/24 10:59:39;;;;;;;2.75;1.50;;;;;;;;;;5012450;28;19921;-60
2022/08/24 11:02:08;;;;;;;7.00;1.52;;;;;;;;;;5006999;28;20049;-59
2022/08/24 11:04:35;;;;;;;3.67;1.50;;;;;;;;;;5012286;28;20050;-60
2022/08/24 11:07:05;;;;;;;2.28;1.35;;;;;;;;;;4993961;28;20061;-65
2022/08/24 11:09:46;;;;;;;1.40;1.10;;;;;;;;;;4991403;28;20148;-62
2022/08/24 11:12:22;;;;;;;5.57;1.38;;;;;;;;;;5001697;28;20062;-63
2022/08/24 11:14:49;;;;;;;3.10;1.65;;;;;;;;;;5012686;28;20141;-63
2022/08/24 11:17:17;;;;;;;2.78;1.40;;;;;;;;;;5006652;28;20049;-62
2022/08/24 11:19:46;;;;;;;;;;;;;;;;;;5012259;28;20064;-63
2022/08/24 11:22:26;;;;;;;3.70;1.60;;;;;;;;;;5006390;28;19921;-64
2022/08/24 11:24:54;;;;;;;2.30;1.40;;;;;;;;;;5012240;28;20088;-64
2022/08/24 11:27:26;;;;;;;2.38;1.25;;;;;;;;;;5006368;28;20049;-57
2022/08/24 11:29:56;;;;;;;3.28;1.50;;;;;;;;;;5010991;28;20133;-59
2022/08/24 11:32:28;;;;;;;1.42;1.10;;;;;;;;;;5006082;28;20050;-64
2022/08/24 11:34:55;;;;;;;2.33;1.17;;;;;;;;;;5011227;28;20065;-57
2022/08/24 11:37:23;;;;;;;6.90;1.45;;;;;;;;;;5004558;28;20129;-64
2022/08/24 11:39:49;;;;;;;2.50;1.40;;;;;;;;;;5011052;28;20050;-61
2022/08/24 11:42:34;;;;;;;2.00;1.17;;;;;;;;;;5006321;28;20045;-63
2022/08/24 11:45:03;;;;;;;2.03;1.20;;;;;;;;;;5012023;28;20058;-64
2022/08/24 11:47:38;;;;;;;2.15;1.10;;;;;;;;;;5007151;28;20050;-61
2022/08/24 11:50:18;;;;;;;2.72;1.30;;;;;;;;;;5012173;28;20069;-65
2022/08/24 11:52:50;;;;;;;4.15;1.17;;;;;;;;;;5006771;28;20099;-64
2022/08/24 11:55:19;;;;;;;2.13;1.23;;;;;;;;;;5011530;28;20053;-63
2022/08/24 11:57:57;;;;;;;2.88;0.95;;;;;;;;;;5006201;28;20049;-64
2022/08/24 12:00:25;;;;;;;3.45;1.08;;;;;;;;;;5011044;28;20069;-63
2022/08/24 12:02:59;;;;;;;1.70;1.10;;;;;;;;;;5005663;28;20097;-63
2022/08/24 12:05:29;;;;;;;2.45;1.30;;;;;;;;;;5003280;28;20050;-63
2022/08/24 12:08:03;;;;;;;3.08;1.35;;;;;;;;;;5008529;28;20050;-64
2022/08/24 12:10:39;;;;;;;2.33;1.23;;;;;;;;;;5008166;28;20138;-64
2022/08/24 12:13:11;;;;;;;2.67;1.35;;;;;;;;;;5010680;28;20061;-61
2022/08/24 12:15:42;;;;;;;3.70;1.27;;;;;;;;;;5005256;28;20073;-63
2022/08/24 12:18:16;;;;;;;3.25;1.17;;;;;;;;;;5010633;28;20100;-63
2022/08/24 12:20:45;;;;;;;3.50;1.20;;;;;;;;;;5006245;28;20054;-64
2022/08/24 12:23:19;;;;;;;4.63;1.40;;;;;;;;;;5010559;28;20112;-64
2022/08/24 12:26:03;;;;;;;4.20;1.25;;;;;;;;;;5006029;28;20062;-63
2022/08/24 12:28:37;;;;;;;3.00;1.38;;;;;;;;;;5010001;28;20061;-61
2022/08/24 12:31:07;;;;;;;6.65;1.40;;;;;;;;;;5005800;28;20088;-58
2022/08/24 12:33:35;;;;;;;2.63;1.40;;;;;;;;;;5011285;28;20050;-60
2022/08/24 12:36:04;;;;;;;1.73;1.20;;;;;;;;;;5008310;28;20054;-62
2022/08/24 12:38:33;;;;;;;1.55;1.00;;;;;;;;;;5008612;28;20087;-61
2022/08/24 12:41:08;;;;;;;3.15;1.40;;;;;;;;;;5011106;28;20058;-63
2022/08/24 12:43:39;;;;;;;3.40;1.75;;;;;;;;;;4981825;28;20046;-64
2022/08/24 12:46:05;;;;;;;7.18;1.15;;;;;;;;;;4991394;28;20057;-64
2022/08/24 12:48:36;;;;;;;2.63;1.40;;;;;;;;;;5011477;28;20050;-60
2022/08/24 12:51:10;;;;;;;4.78;1.48;;;;;;;;;;5008713;28;20073;-59
2022/08/24 12:54:01;;;;;;;2.25;1.45;;;;;;;;;;4997800;28;20041;-61
2022/08/24 12:56:58;;;;;;;2.67;1.40;;;;;;;;;;4991905;28;20045;-61
2022/08/24 12:59:45;;;;;;;1.83;1.15;;;;;;;;;;5005697;28;20045;-64
2022/08/24 13:02:26;;;;;;;3.15;1.13;;;;;;;;;;5010199;28;20062;-61
2022/08/24 13:04:56;;;;;;;1.08;0.93;;;;;;;;;;5005630;28;20096;-63
2022/08/24 13:07:28;;;;;;;4.28;1.23;;;;;;;;;;5009750;28;20117;-61
2022/08/24 13:10:18;;;;;;;2.42;1.20;;;;;;;;;;5005967;28;20121;-62
2022/08/24 13:12:53;;;;;;;6.57;1.08;;;;;;;;;;5008222;28;20054;-61
2022/08/24 13:15:24;;;;;;;3.28;1.40;;;;;;;;;;5006912;28;20152;-59
2022/08/24 13:17:51;;;;;;;4.63;1.30;;;;;;;;;;5008380;28;20125;-61
2022/08/24 13:20:22;;;;;;;1.52;1.10;;;;;;;;;;5010224;28;20046;-61
2022/08/24 13:23:02;;;;;;;5.07;1.10;;;;;;;;;;5005294;28;20073;-61
2022/08/24 13:25:43;;;;;;;2.08;1.25;;;;;;;;;;5009876;28;20058;-58
2022/08/24 13:28:11;;;;;;;3.03;1.30;;;;;;;;;;5004236;28;20124;-57
2022/08/24 13:30:44;;;;;;;;;;;;;;;;;;5009969;28;20042;-64
2022/08/24 13:33:16;;;;;;;2.25;1.23;;;;;;;;;;5021045;28;19926;-58
2022/08/24 13:35:55;;;;;;;1.92;1.20;;;;;;;;;;5009431;28;20064;-63
2022/08/24 13:38:26;;;;;;;1.75;1.20;;;;;;;;;;5004270;28;20050;-63
2022/08/24 13:40:58;;;;;;;1.75;1.20;;;;;;;;;;5009811;28;20046;-65
2022/08/24 13:43:29;;;;;;;1.88;1.25;;;;;;;;;;4997623;28;20045;-64
2022/08/24 13:45:57;;;;;;;3.45;1.10;;;;;;;;;;5008620;28;20057;-63
2022/08/24 13:48:31;;;;;;;1.40;1.10;;;;;;;;;;5003257;28;20053;-64
2022/08/24 13:51:19;;;;;;;4.68;1.30;;;;;;;;;;5009405;28;20141;-65
2022/08/24 13:53:46;;;;;;;;;;;;;;;;;;4990365;28;20046;-63
2022/08/24 13:56:21;;;;;;;2.08;1.05;;;;;;;;;;4988001;28;19929;-62
2022/08/24 13:58:52;;;;;;;2.95;1.10;;;;;;;;;;4995493;28;20053;-64
2022/08/24 14:01:24;;;;;;;2.17;1.20;;;;;;;;;;5009400;28;20050;-64
2022/08/24 14:04:02;;;;;;;2.30;1.38;;;;;;;;;;5003315;28;20050;-62
2022/08/24 14:06:35;;;;;;;3.67;1.58;;;;;;;;;;5008323;28;20058;-64
2022/08/24 14:09:16;;;;;;;2.35;1.13;;;;;;;;;;5005477;28;20045;-63
2022/08/24 14:11:48;;;;;;;1.42;1.02;;;;;;;;;;5009008;28;20050;-64
2022/08/24 14:14:18;;;;;;;2.25;1.17;;;;;;;;;;5002793;28;20085;-62
2022/08/24 14:19:43;;;;;;;2.38;1.23;;;;;;;;;;5003657;28;20050;-64
2022/08/24 14:22:17;;;;;;;6.75;1.50;;;;;;;;;;5008505;28;20050;-61
2022/08/24 14:24:45;;;;;;;4.97;1.60;;;;;;;;;;5003736;28;20050;-63
2022/08/24 14:27:32;;;;;;;2.10;1.30;;;;;;;;;;5005204;28;20096;-64
2022/08/24 14:30:04;;;;;;;1.52;1.23;;;;;;;;;;5001308;28;20046;-64
2022/08/24 14:32:31;;;;;;;2.55;1.33;;;;;;;;;;5006294;28;20058;-64
2022/08/24 14:35:03;;;;;;;1.33;1.10;;;;;;;;;;5003342;28;20073;-63
2022/08/24 14:37:34;;;;;;;4.35;1.20;;;;;;;;;;5007479;28;20069;-65
2022/08/24 14:40:09;;;;;;;3.75;1.30;;;;;;;;;;5001605;28;20092;-58
2022/08/24 14:42:37;;;;;;;1.80;1.20;;;;;;;;;;5006302;28;20080;-62
2022/08/24 14:45:05;;;;;;;1.40;1.30;;;;;;;;;;5000839;28;20050;-63
2022/08/24 14:47:37;;;;;;;1.85;1.10;;;;;;;;;;5007270;28;20096;-64
2022/08/24 14:50:09;;;;;;;2.00;1.20;;;;;;;;;;5000407;28;20108;-63
2022/08/24 14:52:54;;;;;;;2.03;1.30;;;;;;;;;;5010280;28;20084;-62
2022/08/24 14:55:26;;;;;;;1.88;1.10;;;;;;;;;;5006288;28;20056;-65
2022/08/24 14:58:01;;;;;;;2.58;1.40;;;;;;;;;;5010333;28;20050;-59
2022/08/24 15:00:47;;;;;;;3.00;1.30;;;;;;;;;;5005717;28;20050;-60
2022/08/24 15:03:27;;;;;;;1.67;1.10;;;;;;;;;;5011240;28;20073;-64
2022/08/24 15:06:05;;;;;;;3.00;1.45;;;;;;;;;;5005154;28;20049;-62
2022/08/24 15:08:37;;;;;;;1.10;0.95;;;;;;;;;;5010822;28;20052;-64
2022/08/24 15:11:07;;;;;;;1.60;1.10;;;;;;;;;;4989308;28;20064;-64
2022/08/24 15:13:40;;;;;;;1.70;1.20;;;;;;;;;;5010213;28;20107;-63
2022/08/24 15:16:09;;;;;;;2.42;1.30;;;;;;;;;;5004421;28;20042;-65
2022/08/24 15:18:38;;;;;;;1.98;1.30;;;;;;;;;;5009240;28;20132;-62
2022/08/24 15:21:09;;;;;;;3.17;1.23;;;;;;;;;;5011976;28;20034;-62